createdAt,value
2018-03-31T09:51:17.207Z,62.94
2018-03-31T09:53:50.398Z,61.20
2018-03-31T09:56:23.825Z,61.26
2018-03-31T09:58:55.331Z,62.27
2018-03-31T10:01:27.472Z,63.52
2018-03-31T10:03:59.073Z,65.73
2018-03-31T10:06:31.018Z,66.04
2018-03-31T10:09:04.185Z,65.53
2018-03-31T10:11:36.267Z,63.38
2018-03-31T10:14:08.651Z,63.44
2018-03-31T10:16:41.450Z,63.68
2018-03-31T10:19:13.458Z,64.17
2018-03-31T10:21:45.464Z,64.58
2018-03-31T10:24:17.170Z,63.46
2018-03-31T10:26:48.732Z,64.13
2018-03-31T10:29:20.355Z,63.44
2018-03-31T10:31:51.769Z,62.41
2018-03-31T10:34:25.504Z,62.60
2018-03-31T10:36:56.958Z,62.20
2018-03-31T10:39:29.244Z,63.39
2018-03-31T10:42:01.162Z,64.81
2018-03-31T10:44:32.973Z,66.34
2018-03-31T10:47:10.065Z,67.64
2018-03-31T10:49:42.154Z,66.92
2018-03-31T10:52:14.041Z,66.94
2018-03-31T10:54:51.264Z,68.17
2018-03-31T10:57:22.925Z,67.67
2018-03-31T10:59:56.777Z,67.17
2018-03-31T11:02:30.174Z,66.52
2018-03-31T11:05:02.746Z,66.84
2018-03-31T11:07:34.714Z,66.55
2018-03-31T11:10:09.595Z,66.65
2018-03-31T11:12:42.020Z,66.41
2018-03-31T11:15:14.174Z,66.29
2018-03-31T11:17:46.062Z,65.12
2018-03-31T11:20:17.792Z,65.17
2018-03-31T11:22:53.507Z,65.84
2018-03-31T11:25:25.745Z,65.14
2018-03-31T11:27:57.414Z,65.02
2018-03-31T11:30:29.545Z,64.14
2018-03-31T11:33:06.219Z,64.48
2018-03-31T11:35:38.107Z,65.09
2018-03-31T11:38:10.044Z,65.00
2018-03-31T11:40:44.646Z,64.87
2018-03-31T11:43:18.163Z,62.97
2018-03-31T11:45:52.516Z,61.33
2018-03-31T11:48:24.114Z,58.44
2018-03-31T11:50:56.610Z,58.72
2018-03-31T11:53:28.605Z,59.50
2018-03-31T11:56:00.053Z,59.38
2018-03-31T11:58:32.204Z,57.51
2018-03-31T12:01:03.762Z,57.36
2018-03-31T12:03:37.760Z,58.05
2018-03-31T12:06:10.038Z,58.46
2018-03-31T12:08:41.641Z,59.93
2018-03-31T12:11:14.513Z,59.63
2018-03-31T12:13:54.070Z,60.71
2018-03-31T12:16:32.255Z,61.37
2018-03-31T12:19:03.823Z,61.09
2018-03-31T12:21:36.581Z,60.05
2018-03-31T12:24:08.635Z,59.78
2018-03-31T12:26:40.763Z,60.00
2018-03-31T12:29:15.893Z,60.34
2018-03-31T12:31:48.948Z,60.42
2018-03-31T12:34:23.667Z,60.61
2018-03-31T12:36:55.705Z,60.68
2018-03-31T12:39:27.302Z,60.64
2018-03-31T12:42:00.076Z,60.10
2018-03-31T12:44:32.895Z,59.60
2018-03-31T12:47:05.279Z,59.08
2018-03-31T12:49:37.134Z,58.48
2018-03-31T12:52:10.714Z,58.91
2018-03-31T12:54:46.802Z,58.69
2018-03-31T12:57:19.012Z,57.90
2018-03-31T12:59:51.889Z,57.28
2018-03-31T13:02:39.316Z,58.33
2018-03-31T13:05:31.557Z,58.93
2018-03-31T13:08:08.908Z,60.08
2018-03-31T13:10:41.641Z,60.95
2018-03-31T13:13:14.270Z,61.69
2018-03-31T13:15:46.898Z,62.50
2018-03-31T13:18:18.450Z,63.50
2018-03-31T13:20:50.370Z,61.79
2018-03-31T13:23:21.986Z,62.36
2018-03-31T13:25:54.034Z,62.70
2018-03-31T13:28:26.904Z,63.12
2018-03-31T13:30:58.594Z,64.07
2018-03-31T13:33:30.892Z,64.19
2018-03-31T13:36:04.664Z,64.33
2018-03-31T13:38:39.459Z,65.69
2018-03-31T13:41:12.092Z,65.92
2018-03-31T13:43:43.746Z,66.65
2018-03-31T13:46:15.367Z,66.61
2018-03-31T13:48:48.344Z,66.21
2018-03-31T13:51:20.298Z,65.79
2018-03-31T13:53:52.192Z,66.01
2018-03-31T13:56:29.304Z,66.40
2018-03-31T13:59:03.471Z,65.87
2018-03-31T14:01:36.878Z,66.38
2018-03-31T14:04:08.874Z,65.63
2018-03-31T14:06:42.019Z,65.30
2018-03-31T14:09:15.252Z,64.69
2018-03-31T14:11:49.710Z,64.93
2018-03-31T14:14:24.216Z,64.77
2018-03-31T14:16:58.137Z,64.83
2018-03-31T14:19:31.413Z,64.95
2018-03-31T14:22:05.598Z,64.67
2018-03-31T14:24:39.303Z,64.72
2018-03-31T14:27:13.086Z,64.82
2018-03-31T14:29:46.047Z,64.71
2018-03-31T14:32:18.043Z,64.04
2018-03-31T14:35:01.303Z,65.09
2018-03-31T14:37:39.340Z,65.96
2018-03-31T14:40:21.393Z,66.22
2018-03-31T14:43:01.502Z,65.32
2018-03-31T14:45:34.727Z,65.16
2018-03-31T14:48:10.940Z,63.82
2018-03-31T14:50:50.810Z,64.72
2018-03-31T18:03:21.670Z,75.25
2018-03-31T18:05:56.051Z,75.48
2018-03-31T18:08:27.798Z,75.79
2018-03-31T18:11:01.369Z,75.75
2018-03-31T18:13:33.245Z,75.97
2018-03-31T18:16:05.235Z,76.55
2018-03-31T18:18:37.580Z,76.49
2018-03-31T18:21:09.488Z,76.63
2018-03-31T18:23:42.080Z,76.36
2018-03-31T18:26:14.352Z,76.46
2018-03-31T18:28:46.051Z,76.68
2018-03-31T18:31:18.010Z,76.58
2018-03-31T18:36:04.057Z,76.84
2018-03-31T18:38:35.735Z,76.68
2018-03-31T18:41:07.946Z,76.31
2018-03-31T18:43:39.944Z,76.69
2018-03-31T18:46:11.426Z,76.66
2018-03-31T18:48:43.305Z,76.49
2018-03-31T18:51:15.748Z,75.58
2018-03-31T18:53:47.598Z,76.07
2018-03-31T18:56:19.257Z,76.34
2018-03-31T18:58:50.711Z,75.92
2018-03-31T19:01:22.670Z,75.47
2018-03-31T19:03:55.954Z,75.38
2018-03-31T19:06:28.182Z,76.07
2018-03-31T19:09:00.241Z,75.73
2018-03-31T19:11:31.833Z,76.00
2018-03-31T19:14:03.418Z,76.80
2018-03-31T19:16:39.332Z,76.91
2018-03-31T19:19:11.368Z,77.13
2018-03-31T19:21:42.940Z,76.81
2018-03-31T19:24:14.771Z,76.76
2018-03-31T19:26:46.673Z,76.68
2018-03-31T19:29:18.183Z,76.65
2018-03-31T19:31:50.440Z,76.69
2018-03-31T19:34:22.327Z,76.71
2018-03-31T19:36:54.108Z,76.67
2018-03-31T19:39:35.361Z,76.19
2018-03-31T19:42:11.935Z,75.82
2018-03-31T19:44:44.763Z,75.76
2018-03-31T19:47:16.824Z,76.21
2018-03-31T19:49:48.836Z,76.44
2018-03-31T19:52:20.767Z,76.07
2018-03-31T19:54:53.335Z,76.25
2018-03-31T19:57:24.865Z,76.54
2018-03-31T19:59:56.592Z,76.79
2018-03-31T20:02:28.051Z,76.18
2018-03-31T20:04:59.993Z,76.48
2018-03-31T20:07:32.640Z,76.44
2018-03-31T20:10:07.100Z,76.44
2018-03-31T20:12:38.883Z,76.38
2018-03-31T20:15:12.432Z,76.40
2018-03-31T20:17:44.187Z,76.50
2018-03-31T20:20:16.271Z,76.31
2018-03-31T20:22:48.111Z,76.27
2018-03-31T20:25:19.710Z,76.81
2018-03-31T20:27:51.147Z,76.49
2018-03-31T20:30:22.697Z,76.73
2018-03-31T20:32:54.458Z,76.58
2018-03-31T20:35:26.299Z,76.12
2018-03-31T20:37:58.220Z,75.86
2018-03-31T20:40:29.817Z,75.87
2018-03-31T20:43:03.942Z,75.73
2018-03-31T20:45:36.295Z,75.17
2018-03-31T20:48:07.809Z,75.57
2018-03-31T20:50:39.940Z,75.45
2018-03-31T20:53:11.424Z,76.09
2018-03-31T20:55:42.943Z,75.40
2018-03-31T20:58:14.396Z,75.19
2018-03-31T21:00:45.908Z,75.73
2018-03-31T21:03:17.419Z,75.83
2018-03-31T21:05:49.166Z,75.89
2018-03-31T21:08:21.298Z,75.87
2018-03-31T21:10:52.996Z,75.56
2018-03-31T21:13:25.133Z,75.56
2018-03-31T21:15:56.815Z,75.90
2018-03-31T21:18:28.270Z,75.56
2018-03-31T21:21:00.116Z,75.54
2018-03-31T21:23:32.698Z,74.90
2018-03-31T21:26:09.004Z,75.15
2018-03-31T21:28:40.507Z,74.80
2018-03-31T21:31:11.939Z,74.41
2018-03-31T21:33:43.643Z,74.11
2018-03-31T21:36:15.298Z,73.85
2018-03-31T21:38:46.988Z,73.69
2018-03-31T21:41:18.816Z,72.97
2018-03-31T21:43:50.290Z,72.92
2018-03-31T21:46:21.731Z,72.96
2018-03-31T21:48:53.178Z,72.98
2018-03-31T21:51:25.258Z,72.62
2018-03-31T21:53:56.696Z,72.44
2018-03-31T21:56:28.482Z,72.36
2018-03-31T21:59:00.045Z,72.11
2018-03-31T22:01:31.725Z,71.98
2018-03-31T22:04:03.180Z,72.00
2018-03-31T22:06:36.063Z,71.91
2018-03-31T22:09:07.832Z,72.07
2018-03-31T22:11:39.383Z,72.35
2018-03-31T22:16:22.022Z,72.44
2018-03-31T22:18:54.891Z,72.49
2018-03-31T22:21:26.673Z,72.40
2018-03-31T22:24:01.009Z,72.49
2018-03-31T22:26:32.917Z,72.64
2018-03-31T22:29:04.426Z,72.76
2018-03-31T22:31:36.621Z,72.69
2018-03-31T22:34:08.214Z,73.13
2018-03-31T22:36:39.783Z,72.63
2018-03-31T22:39:12.112Z,72.13
2018-03-31T22:41:43.766Z,72.04
2018-03-31T22:44:16.786Z,71.96
2018-03-31T22:46:48.293Z,72.26
2018-03-31T22:49:20.074Z,72.81
2018-03-31T22:51:51.551Z,72.89
2018-03-31T22:54:23.586Z,73.16
2018-03-31T22:56:56.074Z,73.24
2018-03-31T22:59:27.502Z,72.85
2018-03-31T23:01:58.856Z,72.97
2018-03-31T23:04:30.623Z,72.76
2018-03-31T23:07:02.355Z,72.24
2018-03-31T23:09:34.269Z,72.30
2018-03-31T23:12:06.072Z,71.94
2018-03-31T23:14:38.113Z,72.01
2018-03-31T23:17:10.118Z,72.23
2018-03-31T23:19:41.841Z,72.11
2018-03-31T23:22:13.600Z,72.09
2018-03-31T23:24:50.608Z,72.36
2018-03-31T23:27:22.446Z,72.10
2018-03-31T23:29:54.229Z,71.57
2018-03-31T23:32:26.198Z,72.20
2018-03-31T23:35:00.874Z,72.21
2018-03-31T23:37:32.674Z,71.87
2018-03-31T23:40:05.583Z,71.63
2018-03-31T23:42:37.024Z,71.53
2018-03-31T23:45:08.544Z,71.95
2018-03-31T23:47:41.423Z,71.77
2018-03-31T23:50:13.248Z,72.19
2018-03-31T23:52:45.000Z,71.99
2018-03-31T23:55:16.441Z,71.77
2018-03-31T23:57:48.058Z,72.27
